Time;durP1;ratioP1;P1;durP2;ratioP2;P2;SDS_P1;SDS_P2;PMS_P1;PMS_P2;Temp;Humidity;BMP_temperature;BMP_pressure;BME280_temperature;BME280_humidity;BME280_pressure;Samples;Min_cycle;Max_cycle;Signal;HPM_P1;HPM_P2
2021/06/30 18:23:18;;;;;;;16.00;5.75;;;25.30;85.00;;;;;;5099777;27;20402;-80
2021/06/30 18:25:43;;;;;;;8.43;5.70;;;24.90;85.60;;;;;;5111472;28;20858;-80
2021/06/30 18:28:09;;;;;;;16.48;6.10;;;24.80;86.40;;;;;;5112245;28;20435;-86
2021/06/30 18:30:35;;;;;;;6.00;5.40;;;24.90;87.30;;;;;;5111318;28;20023;-85
2021/06/30 18:33:01;;;;;;;7.35;5.30;;;24.90;87.80;;;;;;5108713;28;20020;-83
2021/06/30 18:35:27;;;;;;;17.27;7.22;;;25.00;88.10;;;;;;5110016;28;20055;-84
2021/06/30 18:37:53;;;;;;;6.55;5.78;;;25.00;87.40;;;;;;5112112;28;20027;-84
2021/06/30 18:40:20;;;;;;;11.65;7.97;;;25.10;87.20;;;;;;5109837;28;20448;-87
2021/06/30 18:42:46;;;;;;;13.50;10.50;;;25.20;86.70;;;;;;5110351;28;20034;-86
2021/06/30 18:45:16;;;;;;;17.88;10.30;;;25.30;86.40;;;;;;5110528;28;20386;-91
2021/06/30 18:47:41;;;;;;;13.70;8.18;;;25.30;86.30;;;;;;5110538;28;20031;-86
2021/06/30 18:50:08;;;;;;;9.98;6.60;;;25.30;86.40;;;;;;5111517;28;20016;-86
2021/06/30 18:52:34;;;;;;;125.00;105.38;;;25.30;86.20;;;;;;5110722;28;20032;-93
2021/06/30 18:54:59;;;;;;;10.90;6.53;;;25.40;86.20;;;;;;5112536;28;20491;-92
2021/06/30 18:57:28;;;;;;;24.15;17.52;;;25.40;86.00;;;;;;5113367;28;20023;-93
2021/06/30 18:59:57;;;;;;;16.85;14.13;;;25.40;85.90;;;;;;5112058;28;20036;-94
2021/06/30 19:02:23;;;;;;;13.43;10.43;;;25.40;85.70;;;;;;5111087;28;20362;-91
2021/06/30 19:04:48;;;;;;;20.77;9.30;;;25.40;85.70;;;;;;5110722;28;20031;-93
2021/06/30 19:07:14;;;;;;;8.95;8.05;;;25.50;85.20;;;;;;5116468;28;20024;-96
2021/06/30 19:09:41;;;;;;;13.85;10.70;;;25.50;84.90;;;;;;5114962;28;20419;-96
2021/06/30 19:12:09;;;;;;;12.07;7.38;;;25.50;84.60;;;;;;5111579;28;20046;-95
2021/06/30 19:14:39;;;;;;;7.80;6.60;;;25.60;84.20;;;;;;5114545;28;20024;-96
2021/06/30 19:17:06;;;;;;;9.23;6.30;;;25.60;84.00;;;;;;5112359;28;20027;-92
2021/06/30 19:19:32;;;;;;;9.95;6.47;;;25.50;84.20;;;;;;5110418;28;20030;-92
2021/06/30 19:22:01;;;;;;;7.53;5.50;;;25.50;84.40;;;;;;5112955;28;20105;-95
2021/06/30 19:24:28;;;;;;;8.23;5.90;;;25.50;84.40;;;;;;5111309;28;20031;-93
2021/06/30 19:26:54;;;;;;;9.10;5.47;;;25.50;84.30;;;;;;5110171;28;20020;-89
2021/06/30 19:29:20;;;;;;;10.20;7.78;;;25.40;84.40;;;;;;5110942;28;20024;-89
2021/06/30 19:31:47;;;;;;;10.98;6.70;;;25.40;84.50;;;;;;5091014;28;20481;-92
2021/06/30 19:34:13;;;;;;;6.40;5.30;;;25.40;84.50;;;;;;5078027;28;20051;-91
2021/06/30 19:36:39;;;;;;;11.45;6.55;;;25.40;84.60;;;;;;5093695;28;20478;-90
2021/06/30 19:39:05;;;;;;;10.13;5.50;;;25.40;84.50;;;;;;5096397;28;20028;-95
2021/06/30 19:41:31;;;;;;;8.50;5.57;;;25.40;84.50;;;;;;5098483;28;20024;-94
2021/06/30 19:43:56;;;;;;;20.20;12.52;;;25.40;84.80;;;;;;5096666;28;20077;-92
2021/06/30 19:46:22;;;;;;;10.30;7.72;;;25.30;84.90;;;;;;5097134;28;20024;-89
2021/06/30 19:48:48;;;;;;;14.88;11.65;;;25.20;85.10;;;;;;5096152;28;20045;-95
2021/06/30 19:51:21;;;;;;;9.98;7.57;;;25.20;85.20;;;;;;5096064;28;20061;-90
2021/06/30 19:53:47;;;;;;;10.60;6.75;;;25.20;85.30;;;;;;5095905;28;20478;-90
2021/06/30 19:56:12;;;;;;;7.00;5.65;;;25.20;85.00;;;;;;5095622;28;20119;-89
2021/06/30 19:58:41;;;;;;;6.82;5.22;;;25.20;85.00;;;;;;5095721;28;20055;-89
2021/06/30 20:01:06;;;;;;;6.03;4.70;;;25.20;84.80;;;;;;5095553;28;20024;-89
2021/06/30 20:03:32;;;;;;;6.35;5.50;;;25.20;84.90;;;;;;5090885;28;20103;-88
2021/06/30 20:05:58;;;;;;;5.05;4.55;;;25.20;85.10;;;;;;5096805;28;20416;-89
2021/06/30 20:08:23;;;;;;;5.88;4.97;;;25.10;85.10;;;;;;5092400;28;20044;-89
2021/06/30 20:10:49;;;;;;;5.43;4.82;;;25.10;85.50;;;;;;5091563;28;20036;-89
2021/06/30 20:13:15;;;;;;;6.80;5.13;;;25.00;85.60;;;;;;5096089;28;20107;-84
2021/06/30 20:15:41;;;;;;;6.05;4.90;;;25.00;85.90;;;;;;5094629;28;20027;-83
2021/06/30 20:18:07;;;;;;;5.85;5.32;;;25.00;86.60;;;;;;5095871;28;20035;-85
2021/06/30 20:20:32;;;;;;;5.65;5.15;;;24.90;86.50;;;;;;5077892;28;20034;-84
2021/06/30 20:22:58;;;;;;;6.80;5.28;;;24.80;86.50;;;;;;5073875;28;20037;-84
2021/06/30 20:25:24;;;;;;;8.95;6.60;;;24.80;86.60;;;;;;5075474;28;20020;-85
2021/06/30 20:27:49;;;;;;;7.82;5.40;;;24.80;86.90;;;;;;5075225;28;20036;-85
2021/06/30 20:30:16;;;;;;;9.32;5.18;;;24.80;87.00;;;;;;5075692;28;20020;-83
2021/06/30 20:32:41;;;;;;;9.63;7.55;;;24.80;87.10;;;;;;5075274;28;20540;-83
2021/06/30 20:35:07;;;;;;;12.13;8.80;;;24.80;87.10;;;;;;5075200;28;20029;-83
2021/06/30 20:37:35;;;;;;;8.48;6.45;;;24.80;86.60;;;;;;5075582;28;20024;-85
2021/06/30 20:40:06;;;;;;;5.70;5.20;;;24.80;86.00;;;;;;5073829;28;20501;-83
2021/06/30 20:42:31;;;;;;;6.15;5.40;;;24.90;85.90;;;;;;5074956;28;20382;-83
2021/06/30 20:44:58;;;;;;;9.07;6.35;;;24.80;86.20;;;;;;5072822;28;20107;-84
2021/06/30 20:47:23;;;;;;;35.45;28.05;;;24.80;86.30;;;;;;5075074;28;20020;-89
2021/06/30 20:49:50;;;;;;;14.57;12.10;;;24.80;86.20;;;;;;5099280;28;20531;-90
2021/06/30 20:52:16;;;;;;;9.20;8.15;;;24.80;86.10;;;;;;5095963;28;20073;-91
2021/06/30 20:54:41;;;;;;;9.15;6.57;;;24.80;86.10;;;;;;5095566;28;20032;-88
2021/06/30 20:57:07;;;;;;;5.80;5.07;;;24.80;86.10;;;;;;5093916;28;20119;-89
2021/06/30 20:59:33;;;;;;;5.57;5.03;;;24.80;86.20;;;;;;5094137;28;20027;-87
2021/06/30 21:01:58;;;;;;;6.80;5.57;;;24.80;86.50;;;;;;5093997;28;20038;-87
2021/06/30 21:04:24;;;;;;;5.25;4.75;;;24.70;86.60;;;;;;5111911;28;20024;-83
2021/06/30 21:06:50;;;;;;;5.93;4.63;;;24.60;86.70;;;;;;5106753;28;20100;-83
2021/06/30 21:09:16;;;;;;;5.07;4.57;;;24.60;86.90;;;;;;5093074;28;20024;-86
2021/06/30 21:11:41;;;;;;;5.47;4.97;;;24.60;86.90;;;;;;5093571;28;20028;-83
2021/06/30 21:14:07;;;;;;;6.40;5.75;;;24.60;86.90;;;;;;5093445;28;20024;-86
2021/06/30 21:16:33;;;;;;;10.18;8.00;;;24.60;87.10;;;;;;5093464;28;20028;-84
2021/06/30 21:18:59;;;;;;;9.13;6.90;;;24.50;87.60;;;;;;5095577;28;20028;-88
2021/06/30 21:21:24;;;;;;;5.93;5.38;;;24.50;88.00;;;;;;5095012;28;20098;-88
2021/06/30 21:23:50;;;;;;;6.80;5.28;;;24.40;88.30;;;;;;5082349;28;20483;-87
2021/06/30 21:26:16;;;;;;;10.73;8.20;;;24.40;88.30;;;;;;5073648;28;20107;-91
2021/06/30 21:28:42;;;;;;;12.77;9.00;;;24.40;88.40;;;;;;5086186;28;20031;-84
2021/06/30 21:31:08;;;;;;;7.15;6.45;;;24.30;88.90;;;;;;5094113;28;20367;-84
2021/06/30 21:33:33;;;;;;;5.85;5.35;;;24.30;88.90;;;;;;5094375;28;20031;-85
2021/06/30 21:35:59;;;;;;;6.85;5.47;;;24.30;89.30;;;;;;5093109;28;20028;-85
2021/06/30 21:38:25;;;;;;;5.65;5.10;;;24.30;89.30;;;;;;5086878;28;20032;-85
2021/06/30 21:40:51;;;;;;;6.63;5.15;;;24.30;88.90;;;;;;5074314;28;20378;-85
2021/06/30 21:43:16;;;;;;;6.43;5.35;;;24.30;88.60;;;;;;5072583;28;20027;-85
2021/06/30 21:45:42;;;;;;;5.72;4.80;;;24.40;88.50;;;;;;5082432;28;20056;-85
2021/06/30 21:48:08;;;;;;;6.32;5.30;;;24.50;88.00;;;;;;5099847;28;20378;-85
2021/06/30 21:50:34;;;;;;;6.40;5.20;;;24.50;87.80;;;;;;5074201;28;20486;-84
2021/06/30 21:52:59;;;;;;;5.97;5.28;;;24.50;87.60;;;;;;5072616;28;20039;-84
2021/06/30 21:55:25;;;;;;;7.20;6.07;;;24.50;88.00;;;;;;5072342;28;20463;-84
2021/06/30 21:57:51;;;;;;;8.02;6.00;;;24.40;87.90;;;;;;5072263;28;20119;-84
2021/06/30 22:00:28;;;;;;;7.03;6.10;;;24.30;88.00;;;;;;5072585;28;20025;-84
2021/06/30 22:02:54;;;;;;;7.65;5.82;;;24.20;88.40;;;;;;5079049;28;20024;-84
2021/06/30 22:05:21;;;;;;;8.95;5.57;;;24.30;88.70;;;;;;5092727;28;20023;-84
2021/06/30 22:07:47;;;;;;;8.82;6.20;;;24.20;88.60;;;;;;5092585;28;20070;-84
2021/06/30 22:10:14;;;;;;;7.80;5.80;;;24.20;88.50;;;;;;5092650;28;20374;-84
2021/06/30 22:12:41;;;;;;;9.32;6.85;;;24.20;88.80;;;;;;5090849;28;20435;-84
2021/06/30 22:15:12;;;;;;;10.38;6.68;;;24.20;89.20;;;;;;5093820;28;20032;-84
2021/06/30 22:17:39;;;;;;;8.25;6.53;;;24.00;89.50;;;;;;5093795;28;20028;-84
2021/06/30 22:20:06;;;;;;;8.15;6.05;;;23.90;90.00;;;;;;5092488;28;20024;-84
2021/06/30 22:22:36;;;;;;;7.90;6.10;;;23.90;90.20;;;;;;5091855;28;20051;-85
2021/06/30 22:25:03;;;;;;;10.77;6.50;;;23.90;90.30;;;;;;5073514;28;20020;-85
2021/06/30 22:27:28;;;;;;;12.77;6.30;;;23.80;90.40;;;;;;5073745;28;20036;-84
2021/06/30 22:29:55;;;;;;;8.82;6.93;;;23.80;90.40;;;;;;5072213;28;20028;-84
2021/06/30 22:32:20;;;;;;;8.95;6.75;;;23.70;90.50;;;;;;5072192;28;20024;-84
2021/06/30 22:34:46;;;;;;;10.43;7.18;;;23.70;90.70;;;;;;5073704;28;20103;-84
2021/06/30 22:37:12;;;;;;;21.13;8.48;;;23.60;90.70;;;;;;5073429;28;20070;-84
2021/06/30 22:39:38;;;;;;;12.80;7.70;;;23.60;90.70;;;;;;5089161;28;20043;-84
2021/06/30 22:42:04;;;;;;;8.45;7.53;;;23.60;90.80;;;;;;5073574;28;20078;-85
2021/06/30 22:44:29;;;;;;;11.52;7.90;;;23.50;90.80;;;;;;5072059;28;20035;-84
2021/06/30 22:46:55;;;;;;;12.63;7.82;;;23.50;90.90;;;;;;5072608;28;20374;-84
2021/06/30 22:49:21;;;;;;;10.30;8.02;;;23.50;91.00;;;;;;5091870;28;20024;-85
2021/06/30 22:51:46;;;;;;;12.27;8.40;;;23.40;91.30;;;;;;5093781;28;20028;-84
2021/06/30 22:54:12;;;;;;;10.98;7.57;;;23.40;91.30;;;;;;5093434;28;20052;-84
2021/06/30 22:56:47;;;;;;;9.73;7.88;;;23.30;91.40;;;;;;5093192;28;20024;-84
2021/06/30 22:59:17;;;;;;;12.27;8.15;;;23.30;91.50;;;;;;5092113;28;20055;-84
2021/06/30 23:01:44;;;;;;;10.80;8.15;;;23.20;91.70;;;;;;5092944;28;20076;-85
2021/06/30 23:04:10;;;;;;;12.50;8.27;;;23.10;91.80;;;;;;5071897;28;20079;-84
2021/06/30 23:06:35;;;;;;;10.65;8.15;;;23.10;91.90;;;;;;5073253;28;20048;-84
2021/06/30 23:09:01;;;;;;;9.23;8.18;;;23.10;92.00;;;;;;5085716;28;20020;-84
2021/06/30 23:11:27;;;;;;;11.23;7.97;;;23.00;92.00;;;;;;5095944;28;20500;-84
2021/06/30 23:13:54;;;;;;;12.75;7.85;;;23.00;92.20;;;;;;5097348;28;20072;-84
2021/06/30 23:16:20;;;;;;;9.27;7.70;;;23.00;92.40;;;;;;5097099;28;20020;-84
2021/06/30 23:18:46;;;;;;;10.68;8.27;;;22.90;92.40;;;;;;5097096;28;20024;-84
2021/06/30 23:21:12;;;;;;;11.75;8.43;;;22.90;92.30;;;;;;5096882;28;20116;-84
2021/06/30 23:23:38;;;;;;;12.15;8.52;;;22.90;92.60;;;;;;5088113;28;20084;-84
2021/06/30 23:26:04;;;;;;;10.65;8.25;;;22.80;92.70;;;;;;5076547;28;20024;-84
2021/06/30 23:28:30;;;;;;;10.82;8.23;;;22.80;92.60;;;;;;5075308;28;20021;-85
2021/06/30 23:30:55;;;;;;;8.50;7.22;;;22.80;92.60;;;;;;5076484;28;20507;-84
2021/06/30 23:33:21;;;;;;;10.07;7.13;;;22.80;92.60;;;;;;5075280;28;20505;-84
2021/06/30 23:35:47;;;;;;;9.32;6.82;;;22.90;92.60;;;;;;5075175;28;20555;-84
2021/06/30 23:38:14;;;;;;;7.20;6.47;;;22.90;92.60;;;;;;5092154;28;20033;-84
2021/06/30 23:40:39;;;;;;;8.93;6.90;;;22.90;92.60;;;;;;5076338;28;20067;-84
2021/06/30 23:43:05;;;;;;;8.40;7.15;;;22.90;92.50;;;;;;5076281;28;20024;-84
2021/06/30 23:45:31;;;;;;;9.45;6.93;;;22.90;92.60;;;;;;5076498;28;20371;-84
2021/06/30 23:47:57;;;;;;;8.00;7.20;;;22.90;92.60;;;;;;5075010;28;20097;-84
2021/06/30 23:50:22;;;;;;;7.80;7.00;;;22.90;92.60;;;;;;5091797;28;20032;-84
2021/06/30 23:52:48;;;;;;;9.07;7.13;;;22.90;92.60;;;;;;5076319;28;20021;-84
2021/06/30 23:55:14;;;;;;;9.90;7.30;;;22.80;92.70;;;;;;5076087;28;20028;-84
2021/06/30 23:57:39;;;;;;;9.60;6.82;;;22.80;92.70;;;;;;5076063;28;20029;-84
